createdAt,value
2023-02-05T00:00:10.448Z,-3.06
2023-02-05T00:02:38.873Z,-2.83
2023-02-05T00:05:09.212Z,-3.06
2023-02-05T00:07:37.857Z,-3.14
2023-02-05T00:10:07.182Z,-2.87
2023-02-05T00:12:35.640Z,-2.90
2023-02-05T00:15:03.977Z,-3.00
2023-02-05T00:17:32.428Z,-2.90
2023-02-05T00:20:00.797Z,-3.61
2023-02-05T00:22:30.671Z,-2.99
2023-02-05T00:24:59.113Z,-3.65
2023-02-05T00:27:27.678Z,-3.06
2023-02-05T00:29:56.213Z,-3.07
2023-02-05T00:32:24.654Z,-3.19
2023-02-05T00:34:52.999Z,-3.49
2023-02-05T00:37:21.454Z,-3.21
2023-02-05T00:39:51.381Z,-3.12
2023-02-05T00:42:19.711Z,-3.22
2023-02-05T00:44:48.249Z,-3.14
2023-02-05T00:47:16.733Z,-3.38
2023-02-05T00:49:45.165Z,-3.56
2023-02-05T00:52:13.595Z,-3.22
2023-02-05T00:54:42.035Z,-3.23
2023-02-05T00:57:11.943Z,-3.22
2023-02-05T00:59:40.318Z,-3.24
2023-02-05T01:02:08.766Z,-3.24
2023-02-05T01:04:37.150Z,-3.34
2023-02-05T01:07:05.537Z,-3.26
2023-02-05T01:09:33.951Z,-3.50
2023-02-05T01:12:02.257Z,-3.40
2023-02-05T01:14:32.075Z,-3.26
2023-02-05T01:17:00.441Z,-3.46
2023-02-05T01:19:28.996Z,-3.85
2023-02-05T01:21:57.395Z,-3.34
2023-02-05T01:24:25.859Z,-3.38
2023-02-05T01:26:56.367Z,-3.68
2023-02-05T01:29:24.900Z,-3.40
2023-02-05T01:31:55.338Z,-3.45
2023-02-05T01:34:24.203Z,-3.48
2023-02-05T01:36:52.720Z,-3.47
2023-02-05T01:39:21.188Z,-3.48
2023-02-05T01:41:49.633Z,-3.46
2023-02-05T01:44:20.992Z,-3.55
2023-02-05T01:46:50.159Z,-3.52
2023-02-05T01:49:23.425Z,-3.60
2023-02-05T01:51:53.899Z,-3.96
2023-02-05T01:54:26.259Z,-3.68
2023-02-05T01:56:58.888Z,-3.68
2023-02-05T01:59:29.508Z,-3.68
2023-02-05T02:02:00.971Z,-3.74
2023-02-05T02:04:39.453Z,-3.75
2023-02-05T02:07:09.899Z,-3.87
2023-02-05T02:09:40.076Z,-4.38
2023-02-05T02:12:09.810Z,-4.40
2023-02-05T02:14:42.294Z,-4.01
2023-02-05T02:17:12.152Z,-3.95
2023-02-05T02:19:45.982Z,-4.20
2023-02-05T02:22:30.468Z,-4.01
2023-02-05T02:25:14.494Z,-4.39
2023-02-05T02:27:49.377Z,-4.50
2023-02-05T02:30:24.775Z,-4.40
2023-02-05T02:33:07.158Z,-4.06
2023-02-05T02:35:43.250Z,-4.09
2023-02-05T02:38:18.193Z,-4.08
2023-02-05T02:40:51.836Z,-4.06
2023-02-05T02:43:26.629Z,-4.44
2023-02-05T02:46:00.442Z,-4.20
2023-02-05T02:48:32.372Z,-4.06
2023-02-05T02:51:03.278Z,-5.00
2023-02-05T02:53:38.461Z,-4.06
2023-02-05T02:56:09.583Z,-4.63
2023-02-05T02:58:44.103Z,-4.28
2023-02-05T03:01:14.813Z,-4.41
2023-02-05T03:03:47.049Z,-4.06
2023-02-05T03:06:17.437Z,-4.38
2023-02-05T03:08:51.941Z,-3.78
2023-02-05T03:11:20.363Z,-3.65
2023-02-05T03:13:50.576Z,-3.60
2023-02-05T03:16:21.205Z,-3.54
2023-02-05T03:18:50.320Z,-4.08
2023-02-05T03:21:23.949Z,-3.34
2023-02-05T03:23:52.026Z,-3.34
2023-02-05T03:26:25.538Z,-3.30
2023-02-05T03:28:55.726Z,-3.38
2023-02-05T03:31:35.055Z,-3.64
2023-02-05T03:34:13.847Z,-3.26
2023-02-05T03:36:56.529Z,-3.14
2023-02-05T03:39:36.758Z,-3.06
2023-02-05T03:42:15.428Z,-2.97
2023-02-05T03:45:02.651Z,-2.90
2023-02-05T03:47:39.806Z,-3.02
2023-02-05T03:50:19.555Z,-2.80
2023-02-05T03:52:52.605Z,-2.75
2023-02-05T03:55:23.959Z,-2.96
2023-02-05T03:57:56.888Z,-2.72
2023-02-05T04:00:27.698Z,-2.81
2023-02-05T04:02:56.276Z,-2.94
2023-02-05T04:05:25.568Z,-2.92
2023-02-05T04:07:54.494Z,-2.66
2023-02-05T04:10:22.956Z,-2.72
2023-02-05T04:12:51.430Z,-2.56
2023-02-05T04:15:19.811Z,-2.56
2023-02-05T04:17:49.713Z,-2.52
2023-02-05T04:20:18.646Z,-2.51
2023-02-05T04:22:46.977Z,-2.70
2023-02-05T04:25:15.450Z,-2.64
2023-02-05T04:27:43.897Z,-2.47
2023-02-05T04:30:14.006Z,-2.46
2023-02-05T04:32:43.155Z,-2.45
2023-02-05T04:35:12.908Z,-2.40
2023-02-05T04:37:41.399Z,-2.38
2023-02-05T04:40:11.503Z,-2.38
2023-02-05T04:42:39.916Z,-2.39
2023-02-05T04:45:08.954Z,-2.77
2023-02-05T04:47:38.452Z,-2.86
2023-02-05T04:50:07.354Z,-2.74
2023-02-05T04:52:37.273Z,-2.42
2023-02-05T04:55:06.264Z,-2.42
2023-02-05T04:57:34.618Z,-2.47
2023-02-05T05:00:03.538Z,-3.33
2023-02-05T05:02:32.152Z,-2.42
2023-02-05T05:05:00.453Z,-2.34
2023-02-05T05:07:31.461Z,-2.32
2023-02-05T05:10:01.291Z,-2.35
2023-02-05T05:12:30.073Z,-2.41
2023-02-05T05:14:58.724Z,-2.30
2023-02-05T05:17:27.276Z,-2.27
2023-02-05T05:19:55.775Z,-2.25
2023-02-05T05:22:24.875Z,-2.78
2023-02-05T05:24:53.213Z,-2.28
2023-02-05T05:27:24.509Z,-2.31
2023-02-05T05:29:52.875Z,-2.32
2023-02-05T05:32:21.448Z,-2.44
2023-02-05T05:34:49.906Z,-2.24
2023-02-05T05:37:18.284Z,-2.30
2023-02-05T05:40:04.000Z,-2.48
2023-02-05T05:42:50.850Z,-2.23
2023-02-05T05:45:19.359Z,-2.16
2023-02-05T05:47:47.663Z,-2.35
2023-02-05T05:50:16.597Z,-2.12
2023-02-05T05:52:45.102Z,-2.50
2023-02-05T05:55:13.519Z,-2.01
2023-02-05T05:57:43.400Z,-1.96
2023-02-05T06:00:13.577Z,-1.92
2023-02-05T06:02:44.484Z,-1.96
2023-02-05T06:05:13.261Z,-1.96
2023-02-05T06:07:41.559Z,-1.90
2023-02-05T06:10:10.542Z,-1.91
2023-02-05T06:12:39.042Z,-1.89
2023-02-05T06:15:10.067Z,-2.03
2023-02-05T06:17:38.870Z,-1.96
2023-02-05T06:20:08.250Z,-1.79
2023-02-05T06:22:36.988Z,-1.77
2023-02-05T06:25:06.138Z,-1.76
2023-02-05T06:27:35.044Z,-1.73
2023-02-05T06:30:04.394Z,-1.67
2023-02-05T06:32:34.264Z,-1.74
2023-02-05T06:35:02.685Z,-1.70
2023-02-05T06:37:46.854Z,-1.77
2023-02-05T06:40:18.418Z,-1.63
2023-02-05T06:42:47.167Z,-1.61
2023-02-05T06:45:15.717Z,-1.81
2023-02-05T06:47:45.575Z,-1.56
2023-02-05T06:50:14.228Z,-1.71
2023-02-05T06:52:42.761Z,-1.65
2023-02-05T06:55:11.839Z,-1.50
2023-02-05T06:57:40.290Z,-1.56
2023-02-05T07:00:10.020Z,-1.60
2023-02-05T07:02:38.486Z,-1.69
2023-02-05T07:05:08.892Z,-1.66
2023-02-05T07:07:37.306Z,-1.61
2023-02-05T07:10:06.484Z,-1.41
2023-02-05T07:12:34.936Z,-1.40
2023-02-05T07:15:03.288Z,-1.41
2023-02-05T07:17:31.809Z,-1.39
2023-02-05T07:20:00.178Z,-1.45
2023-02-05T07:22:30.468Z,-1.31
2023-02-05T07:24:59.117Z,-1.55
2023-02-05T07:27:27.488Z,-1.25
2023-02-05T07:29:55.934Z,-1.32
2023-02-05T07:32:24.728Z,-1.18
2023-02-05T07:34:53.165Z,-1.19
2023-02-05T07:37:21.745Z,-1.15
2023-02-05T07:39:51.582Z,-1.09
2023-02-05T07:42:19.948Z,-1.15
2023-02-05T07:44:48.701Z,-1.42
2023-02-05T07:47:17.172Z,-0.95
2023-02-05T07:49:45.456Z,-0.88
2023-02-05T07:52:13.907Z,-0.92
2023-02-05T07:54:42.626Z,-0.81
2023-02-05T07:57:12.618Z,-0.85
2023-02-05T07:59:41.212Z,-0.97
2023-02-05T08:02:11.454Z,-0.88
2023-02-05T08:04:39.800Z,-1.03
2023-02-05T08:07:08.582Z,-0.81
2023-02-05T08:09:38.005Z,-0.94
2023-02-05T08:12:07.370Z,-1.03
2023-02-05T08:14:37.191Z,-0.94
2023-02-05T08:17:07.378Z,-0.76
2023-02-05T08:19:35.935Z,-0.73
2023-02-05T08:22:04.498Z,-0.70
2023-02-05T08:24:33.437Z,-0.99
2023-02-05T08:27:01.865Z,-0.72
2023-02-05T08:29:30.350Z,-0.66
2023-02-05T08:32:00.393Z,-0.59
2023-02-05T08:34:28.735Z,-0.56
2023-02-05T08:36:57.985Z,-1.00
2023-02-05T08:39:27.076Z,-0.58
2023-02-05T08:41:57.007Z,-0.43
2023-02-05T08:44:25.725Z,-0.40
2023-02-05T08:46:53.996Z,-0.40
2023-02-05T08:49:23.963Z,-0.51
2023-02-05T08:51:52.810Z,-0.40
2023-02-05T08:54:21.170Z,-0.57
2023-02-05T08:56:52.061Z,-0.59
2023-02-05T08:59:21.013Z,-0.35
2023-02-05T09:01:49.713Z,-0.46
2023-02-05T09:04:19.827Z,-0.33
2023-02-05T09:06:49.629Z,-0.31
2023-02-05T09:09:18.194Z,-0.37
2023-02-05T09:11:47.878Z,-0.36
2023-02-05T09:14:16.672Z,-0.23
2023-02-05T09:16:45.251Z,-0.21
2023-02-05T09:19:13.652Z,-0.42
2023-02-05T09:21:42.854Z,-0.35
2023-02-05T09:24:12.841Z,-0.42
2023-02-05T09:26:41.109Z,-0.19
2023-02-05T09:29:09.436Z,-0.15
2023-02-05T09:31:37.955Z,-0.14
2023-02-05T09:34:06.468Z,-0.11
2023-02-05T09:36:35.030Z,-0.16
2023-02-05T09:39:14.056Z,-0.17
2023-02-05T09:41:58.020Z,-0.08
2023-02-05T09:44:44.637Z,-0.06
2023-02-05T09:47:21.635Z,-0.04
2023-02-05T09:49:57.740Z,-0.04
2023-02-05T09:52:30.765Z,-0.04
2023-02-05T09:55:04.135Z,-0.03
2023-02-05T09:57:37.294Z,-0.03
2023-02-05T10:00:14.018Z,-0.15
2023-02-05T10:02:50.988Z,-0.18
2023-02-05T10:05:25.650Z,-0.24
2023-02-05T10:08:01.224Z,0.03
2023-02-05T10:10:33.562Z,0.06
2023-02-05T10:13:27.355Z,0.01
2023-02-05T10:16:23.426Z,-0.06
2023-02-05T10:19:22.296Z,0.20
2023-02-05T10:22:00.329Z,0.20
2023-02-05T10:24:54.117Z,0.24
2023-02-05T10:27:24.696Z,0.26
2023-02-05T10:30:04.291Z,0.26
2023-02-05T10:32:48.500Z,0.24
2023-02-05T10:35:25.078Z,0.24
2023-02-05T10:37:56.924Z,0.20
2023-02-05T10:40:28.940Z,0.19
2023-02-05T10:43:04.026Z,0.19
2023-02-05T10:45:34.812Z,0.24
2023-02-05T10:48:19.015Z,0.28
2023-02-05T10:50:54.902Z,0.31
2023-02-05T10:53:25.666Z,0.32
2023-02-05T10:55:54.255Z,0.18
2023-02-05T10:58:40.033Z,0.25
2023-02-05T11:01:15.797Z,0.27
2023-02-05T11:03:54.821Z,0.30
2023-02-05T11:06:24.938Z,-0.17
2023-02-05T11:08:53.612Z,0.41
2023-02-05T11:11:25.291Z,0.46
2023-02-05T11:13:57.287Z,-0.35
2023-02-05T11:16:39.010Z,0.33
2023-02-05T11:19:21.459Z,0.10
2023-02-05T11:21:54.573Z,0.56
2023-02-05T11:24:29.841Z,0.54
2023-02-05T11:27:29.744Z,0.50
2023-02-05T11:30:01.245Z,0.08
2023-02-05T11:32:39.884Z,0.49
2023-02-05T11:35:20.099Z,0.53
2023-02-05T11:37:51.823Z,0.65
2023-02-05T11:40:26.118Z,0.67
2023-02-05T11:43:06.699Z,0.71
2023-02-05T11:45:40.169Z,0.72
2023-02-05T11:48:27.928Z,0.71
2023-02-05T11:50:56.704Z,0.73
2023-02-05T11:53:25.948Z,0.71
2023-02-05T11:55:57.093Z,0.69
2023-02-05T11:58:36.695Z,0.74
2023-02-05T12:01:08.054Z,0.78
2023-02-05T12:03:38.201Z,0.81
2023-02-05T12:06:18.378Z,0.49
2023-02-05T12:08:50.809Z,0.65
2023-02-05T12:11:31.943Z,0.65
2023-02-05T12:14:08.621Z,0.20
2023-02-05T12:16:52.087Z,0.87
2023-02-05T12:19:25.221Z,0.78
2023-02-05T12:22:00.108Z,0.79
2023-02-05T12:24:58.118Z,0.81
2023-02-05T12:27:38.375Z,0.54
2023-02-05T12:30:24.700Z,0.87
2023-02-05T12:33:05.692Z,0.78
2023-02-05T12:35:52.334Z,0.91
2023-02-05T12:38:35.103Z,0.79
2023-02-05T12:41:16.534Z,0.85
2023-02-05T12:43:50.276Z,0.85
2023-02-05T12:46:29.687Z,0.78
2023-02-05T12:49:13.474Z,0.78
2023-02-05T12:51:57.342Z,0.64
2023-02-05T12:54:46.443Z,0.64
2023-02-05T12:57:18.340Z,0.59
2023-02-05T12:59:50.752Z,0.73
2023-02-05T13:02:28.917Z,0.70
2023-02-05T13:05:10.414Z,0.73
2023-02-05T13:07:42.584Z,0.87
2023-02-05T13:10:18.458Z,0.91
2023-02-05T13:12:52.252Z,0.87
2023-02-05T13:15:22.369Z,0.61
2023-02-05T13:18:00.923Z,0.84
2023-02-05T13:20:51.231Z,0.90
2023-02-05T13:23:38.408Z,0.96
2023-02-05T13:26:25.978Z,0.99
2023-02-05T13:28:57.128Z,0.93
2023-02-05T13:31:29.784Z,1.04
2023-02-05T13:34:02.430Z,1.00
2023-02-05T13:37:12.902Z,1.00
2023-02-05T13:40:07.535Z,1.00
2023-02-05T13:43:03.917Z,0.73
2023-02-05T13:45:53.300Z,0.77
2023-02-05T13:48:53.514Z,0.69
2023-02-05T13:51:44.887Z,0.36
2023-02-05T13:54:32.726Z,0.65
2023-02-05T13:57:14.872Z,0.69
2023-02-05T13:59:51.650Z,0.33
2023-02-05T14:02:33.027Z,0.81
2023-02-05T14:05:03.481Z,0.22
2023-02-05T14:07:34.818Z,0.84
2023-02-05T14:10:04.203Z,0.84
2023-02-05T14:12:36.230Z,1.01
2023-02-05T14:15:38.798Z,1.00
2023-02-05T14:18:08.234Z,0.84
2023-02-05T14:20:39.367Z,1.01
2023-02-05T14:23:17.885Z,0.96
2023-02-05T14:26:07.673Z,0.92
2023-02-05T14:28:48.717Z,0.84
2023-02-05T14:31:56.455Z,0.91
2023-02-05T14:34:48.175Z,0.77
2023-02-05T14:37:31.283Z,0.84
2023-02-05T14:40:00.326Z,0.87
2023-02-05T14:42:31.695Z,0.88
2023-02-05T14:45:02.063Z,0.91
2023-02-05T14:47:35.863Z,0.84
2023-02-05T14:50:09.821Z,0.90
2023-02-05T14:52:40.742Z,0.94
2023-02-05T14:55:19.869Z,1.04
2023-02-05T14:57:53.462Z,1.07
2023-02-05T15:00:34.315Z,1.06
2023-02-05T15:03:30.503Z,1.07
2023-02-05T15:06:04.468Z,1.07
2023-02-05T15:08:45.632Z,1.05
2023-02-05T15:11:21.939Z,0.93
2023-02-05T15:14:33.322Z,0.99
2023-02-05T15:17:38.638Z,0.91
2023-02-05T15:20:20.544Z,0.89
2023-02-05T15:22:53.674Z,0.80
2023-02-05T15:25:39.952Z,0.82
2023-02-05T15:28:18.483Z,0.72
2023-02-05T15:30:54.855Z,0.95
2023-02-05T15:33:32.255Z,0.97
2023-02-05T15:36:07.381Z,0.95
2023-02-05T15:38:44.149Z,0.71
2023-02-05T15:41:15.056Z,0.99
2023-02-05T15:44:00.000Z,0.99
2023-02-05T15:46:29.193Z,0.91
2023-02-05T15:48:58.373Z,0.89
2023-02-05T15:51:33.150Z,0.84
2023-02-05T15:54:04.306Z,0.78
2023-02-05T15:56:37.800Z,0.80
2023-02-05T15:59:13.386Z,0.85
2023-02-05T16:01:46.968Z,0.88
2023-02-05T16:04:19.283Z,0.77
2023-02-05T16:06:49.075Z,0.85
2023-02-05T16:09:19.873Z,0.89
2023-02-05T16:11:49.380Z,0.80
2023-02-05T16:14:19.894Z,0.96
2023-02-05T16:17:00.613Z,0.64
2023-02-05T16:19:34.455Z,0.88
2023-02-05T16:22:12.034Z,0.90
2023-02-05T16:24:43.922Z,0.92
2023-02-05T16:27:16.422Z,0.89
2023-02-05T16:29:49.286Z,0.81
2023-02-05T16:32:25.260Z,0.87
2023-02-05T16:34:53.798Z,0.86
2023-02-05T16:37:29.218Z,0.55
2023-02-05T16:39:59.947Z,0.85
2023-02-05T16:42:34.524Z,0.87
2023-02-05T16:45:20.056Z,0.88
2023-02-05T16:48:21.526Z,0.90
2023-02-05T16:50:50.603Z,0.83
2023-02-05T16:53:26.427Z,0.96
2023-02-05T16:55:59.456Z,0.92
2023-02-05T16:58:32.797Z,0.87
2023-02-05T17:01:04.206Z,0.83
2023-02-05T17:03:36.887Z,0.85
2023-02-05T17:06:12.541Z,0.79
2023-02-05T17:08:45.555Z,0.89
2023-02-05T17:11:36.098Z,0.87
2023-02-05T17:14:24.024Z,0.88
2023-02-05T17:16:57.577Z,0.73
2023-02-05T17:19:28.465Z,0.86
2023-02-05T17:22:21.690Z,0.90
2023-02-05T17:24:52.145Z,0.82
2023-02-05T17:27:26.600Z,0.81
2023-02-05T17:29:55.400Z,0.82
2023-02-05T17:32:24.090Z,0.19
2023-02-05T17:34:52.409Z,0.83
2023-02-05T17:37:20.790Z,0.71
2023-02-05T17:39:51.766Z,0.81
2023-02-05T17:42:22.321Z,0.79
2023-02-05T17:44:51.498Z,0.60
2023-02-05T17:47:20.205Z,0.71
2023-02-05T17:49:48.803Z,0.49
2023-02-05T17:52:17.726Z,0.77
2023-02-05T17:54:46.598Z,0.52
2023-02-05T17:57:19.402Z,0.81
2023-02-05T17:59:48.509Z,0.79
2023-02-05T18:02:17.747Z,0.74
2023-02-05T18:04:46.272Z,0.81
2023-02-05T18:07:21.553Z,0.75
2023-02-05T18:09:50.045Z,0.65
2023-02-05T18:12:19.849Z,0.74
2023-02-05T18:14:48.167Z,0.59
2023-02-05T18:17:16.565Z,0.80
2023-02-05T18:19:45.042Z,0.79
2023-02-05T18:22:13.951Z,0.80
2023-02-05T18:24:42.369Z,0.69
2023-02-05T18:27:12.543Z,0.67
2023-02-05T18:29:43.813Z,0.63
2023-02-05T18:32:12.849Z,0.39
2023-02-05T18:34:41.312Z,0.61
2023-02-05T18:37:09.790Z,0.62
2023-02-05T18:39:38.827Z,0.63
2023-02-05T18:42:07.772Z,0.56
2023-02-05T18:44:36.444Z,0.56
2023-02-05T18:47:07.424Z,0.31
2023-02-05T18:49:36.395Z,0.48
2023-02-05T18:52:05.668Z,0.57
2023-02-05T18:54:34.242Z,0.19
2023-02-05T18:57:02.802Z,0.54
2023-02-05T18:59:31.294Z,0.57
2023-02-05T19:02:00.530Z,0.60
2023-02-05T19:04:33.149Z,0.58
2023-02-05T19:07:01.609Z,0.55
2023-02-05T19:09:30.394Z,0.53
2023-02-05T19:11:58.719Z,0.54
2023-02-05T19:14:27.594Z,0.48
2023-02-05T19:16:56.070Z,0.47
2023-02-05T19:19:26.548Z,0.45
2023-02-05T19:22:00.242Z,0.29
2023-02-05T19:24:28.299Z,0.15
2023-02-05T19:26:59.224Z,0.18
2023-02-05T19:29:28.292Z,0.20
2023-02-05T19:31:57.534Z,0.01
2023-02-05T19:34:27.855Z,0.27
2023-02-05T19:36:57.619Z,0.32
2023-02-05T19:39:26.378Z,-0.01
2023-02-05T19:41:54.826Z,0.17
2023-02-05T19:44:23.920Z,0.07
2023-02-05T19:46:52.283Z,0.01
2023-02-05T19:49:22.333Z,0.20
2023-02-05T19:51:54.199Z,0.21
2023-02-05T19:54:24.239Z,0.22
2023-02-05T19:56:53.117Z,0.23
2023-02-05T19:59:21.496Z,0.10
2023-02-05T20:01:50.183Z,0.20
2023-02-05T20:04:22.445Z,0.21
2023-02-05T20:06:53.032Z,0.25
2023-02-05T20:09:21.725Z,0.24
2023-02-05T20:11:54.466Z,0.24
2023-02-05T20:14:22.940Z,-0.12
2023-02-05T20:16:52.430Z,0.23
2023-02-05T20:19:21.273Z,0.07
2023-02-05T20:21:49.979Z,0.24
2023-02-05T20:24:18.468Z,0.18
2023-02-05T20:26:49.030Z,0.17
2023-02-05T20:29:36.410Z,0.14
2023-02-05T20:32:05.678Z,0.18
2023-02-05T20:34:36.343Z,0.11
2023-02-05T20:37:07.266Z,0.14
2023-02-05T20:39:39.821Z,0.09
2023-02-05T20:42:08.211Z,-0.01
2023-02-05T20:44:38.365Z,0.01
2023-02-05T20:47:08.516Z,-0.16
2023-02-05T20:49:38.040Z,-0.06
2023-02-05T20:52:06.852Z,-0.06
2023-02-05T20:54:35.582Z,0.02
2023-02-05T20:57:04.295Z,0.06
2023-02-05T20:59:34.602Z,-0.48
2023-02-05T21:02:04.854Z,-0.05
2023-02-05T21:04:33.324Z,-0.02
2023-02-05T21:07:01.660Z,-0.07
2023-02-05T21:09:30.128Z,-0.08
2023-02-05T21:11:58.514Z,-0.02
2023-02-05T21:14:26.868Z,-0.01
2023-02-05T21:16:55.254Z,-0.06
2023-02-05T21:19:24.967Z,-0.06
2023-02-05T21:21:53.320Z,-0.25
2023-02-05T21:24:21.981Z,-0.06
2023-02-05T21:26:51.057Z,-0.06
2023-02-05T21:29:21.476Z,-0.17
2023-02-05T21:31:53.053Z,-0.05
2023-02-05T21:34:27.473Z,-0.05
2023-02-05T21:36:56.478Z,-0.10
2023-02-05T21:39:25.760Z,-0.22
2023-02-05T21:41:54.849Z,-0.28
2023-02-05T21:44:23.723Z,-0.30
2023-02-05T21:46:53.483Z,-0.26
2023-02-05T21:49:22.027Z,-0.25
2023-02-05T21:51:53.466Z,-0.29
2023-02-05T21:54:25.605Z,-0.50
2023-02-05T21:56:54.249Z,-0.28
2023-02-05T21:59:22.631Z,-0.26
2023-02-05T22:01:51.105Z,-0.41
2023-02-05T22:04:19.581Z,-0.25
2023-02-05T22:06:47.971Z,-0.27
2023-02-05T22:09:18.227Z,-0.27
2023-02-05T22:11:46.942Z,-0.30
2023-02-05T22:14:15.317Z,-0.31
2023-02-05T22:16:44.252Z,-0.50
2023-02-05T22:19:12.788Z,-0.35
2023-02-05T22:21:43.148Z,-0.32
2023-02-05T22:24:15.719Z,-0.31
2023-02-05T22:26:46.364Z,-0.39
2023-02-05T22:29:16.729Z,-0.36
2023-02-05T22:31:46.497Z,-0.43
2023-02-05T22:34:15.004Z,-0.42
2023-02-05T22:36:43.509Z,-0.44
2023-02-05T22:39:11.957Z,-0.40
2023-02-05T22:41:41.983Z,-0.42
2023-02-05T22:44:12.933Z,-0.45
2023-02-05T22:46:43.671Z,-0.63
2023-02-05T22:49:15.454Z,-0.41
2023-02-05T22:51:44.294Z,-0.39
2023-02-05T22:54:14.821Z,-0.43
2023-02-05T22:56:43.336Z,-0.38
2023-02-05T22:59:13.997Z,-0.46
2023-02-05T23:01:42.411Z,-0.40
2023-02-05T23:04:12.053Z,-0.34
2023-02-05T23:06:42.155Z,-0.40
2023-02-05T23:09:12.519Z,-0.40
2023-02-05T23:11:40.887Z,-0.37
2023-02-05T23:14:10.188Z,-0.40
2023-02-05T23:16:42.343Z,-0.41
2023-02-05T23:19:12.897Z,-0.58
2023-02-05T23:21:42.023Z,-0.36
2023-02-05T23:24:11.034Z,-0.39
2023-02-05T23:26:42.486Z,-0.34
2023-02-05T23:29:12.449Z,-0.31
2023-02-05T23:31:43.132Z,-0.26
2023-02-05T23:34:11.943Z,-0.36
2023-02-05T23:36:40.446Z,-0.26
2023-02-05T23:39:08.944Z,-1.12
2023-02-05T23:41:37.512Z,-0.22
2023-02-05T23:44:08.592Z,-0.22
2023-02-05T23:46:38.217Z,-0.19
2023-02-05T23:49:08.745Z,-0.22
2023-02-05T23:51:37.435Z,-0.12
2023-02-05T23:54:06.494Z,-0.08
2023-02-05T23:56:35.140Z,-0.08
2023-02-05T23:59:03.584Z,-0.33
